sensor_id;sensor_type;location;lat;lon;timestamp;pressure;altitude;pressure_sealevel;temperature;humidity
75208;BME280;63795;55.684;37.864;2023-07-30T00:01:05;98919.69;;;14.32;82.58
75208;BME280;63795;55.684;37.864;2023-07-30T00:06:06;98910.91;;;14.26;82.90
75208;BME280;63795;55.684;37.864;2023-07-30T00:11:06;98917.84;;;14.25;82.94
75208;BME280;63795;55.684;37.864;2023-07-30T00:16:07;98906.44;;;14.25;82.73
75208;BME280;63795;55.684;37.864;2023-07-30T00:21:07;98912.84;;;14.29;82.78
75208;BME280;63795;55.684;37.864;2023-07-30T00:26:08;98910.81;;;14.30;82.81
75208;BME280;63795;55.684;37.864;2023-07-30T00:31:08;98904.19;;;14.33;82.38
75208;BME280;63795;55.684;37.864;2023-07-30T00:36:09;98905.31;;;14.35;82.58
75208;BME280;63795;55.684;37.864;2023-07-30T00:41:09;98903.41;;;14.32;82.29
75208;BME280;63795;55.684;37.864;2023-07-30T00:46:10;98897.69;;;14.32;82.67
75208;BME280;63795;55.684;37.864;2023-07-30T00:51:13;98895.75;;;14.29;82.59
75208;BME280;63795;55.684;37.864;2023-07-30T00:56:14;98894.50;;;14.30;82.77
75208;BME280;63795;55.684;37.864;2023-07-30T01:01:15;98901.78;;;14.31;82.93
75208;BME280;63795;55.684;37.864;2023-07-30T01:06:16;98897.00;;;14.28;83.38
75208;BME280;63795;55.684;37.864;2023-07-30T01:11:17;98892.53;;;14.27;83.63
75208;BME280;63795;55.684;37.864;2023-07-30T01:16:18;98884.88;;;14.24;83.83
75208;BME280;63795;55.684;37.864;2023-07-30T01:21:19;98884.22;;;14.20;84.30
75208;BME280;63795;55.684;37.864;2023-07-30T01:26:24;98891.50;;;14.21;84.54
75208;BME280;63795;55.684;37.864;2023-07-30T01:31:30;98877.47;;;14.14;84.77
75208;BME280;63795;55.684;37.864;2023-07-30T01:36:33;98902.53;;;14.19;84.23
75208;BME280;63795;55.684;37.864;2023-07-30T01:41:34;98894.13;;;14.16;84.83
75208;BME280;63795;55.684;37.864;2023-07-30T01:46:35;98893.66;;;14.17;85.03
75208;BME280;63795;55.684;37.864;2023-07-30T01:51:35;98894.22;;;14.12;84.94
75208;BME280;63795;55.684;37.864;2023-07-30T01:56:36;98895.38;;;14.15;85.58
75208;BME280;63795;55.684;37.864;2023-07-30T02:01:36;98895.25;;;14.18;85.75
75208;BME280;63795;55.684;37.864;2023-07-30T02:06:37;98880.56;;;14.20;85.33
75208;BME280;63795;55.684;37.864;2023-07-30T02:11:37;98890.59;;;14.24;85.38
75208;BME280;63795;55.684;37.864;2023-07-30T02:16:38;98883.63;;;14.25;84.77
75208;BME280;63795;55.684;37.864;2023-07-30T02:21:38;98889.31;;;14.25;85.06
75208;BME280;63795;55.684;37.864;2023-07-30T02:26:42;98897.00;;;14.28;84.83
75208;BME280;63795;55.684;37.864;2023-07-30T02:31:43;98892.09;;;14.29;84.71
75208;BME280;63795;55.684;37.864;2023-07-30T02:36:43;98902.72;;;14.28;85.36
75208;BME280;63795;55.684;37.864;2023-07-30T02:41:44;98901.19;;;14.24;85.20
75208;BME280;63795;55.684;37.864;2023-07-30T02:46:44;98892.28;;;14.22;85.55
75208;BME280;63795;55.684;37.864;2023-07-30T02:51:45;98904.38;;;14.26;85.56
75208;BME280;63795;55.684;37.864;2023-07-30T02:56:48;98898.22;;;14.27;85.55
75208;BME280;63795;55.684;37.864;2023-07-30T03:01:49;98905.78;;;14.34;85.34
75208;BME280;63795;55.684;37.864;2023-07-30T03:06:49;98916.28;;;14.37;85.09
75208;BME280;63795;55.684;37.864;2023-07-30T03:11:51;98922.56;;;14.44;85.16
75208;BME280;63795;55.684;37.864;2023-07-30T03:16:52;98925.75;;;14.46;85.14
75208;BME280;63795;55.684;37.864;2023-07-30T03:21:52;98924.84;;;14.49;84.46
75208;BME280;63795;55.684;37.864;2023-07-30T03:26:53;98920.75;;;14.51;84.55
75208;BME280;63795;55.684;37.864;2023-07-30T03:31:53;98922.66;;;14.54;84.33
75208;BME280;63795;55.684;37.864;2023-07-30T03:36:54;98929.19;;;14.67;84.43
75208;BME280;63795;55.684;37.864;2023-07-30T03:41:54;98931.44;;;14.72;84.01
75208;BME280;63795;55.684;37.864;2023-07-30T03:46:55;98946.63;;;14.81;83.56
75208;BME280;63795;55.684;37.864;2023-07-30T03:51:55;98931.78;;;14.86;83.31
75208;BME280;63795;55.684;37.864;2023-07-30T03:56:56;98940.91;;;14.94;83.29
75208;BME280;63795;55.684;37.864;2023-07-30T04:01:56;98949.25;;;15.01;83.30
75208;BME280;63795;55.684;37.864;2023-07-30T04:06:57;98956.88;;;15.16;82.85
75208;BME280;63795;55.684;37.864;2023-07-30T04:11:57;98951.00;;;15.32;82.43
75208;BME280;63795;55.684;37.864;2023-07-30T04:16:58;98958.16;;;15.50;82.15
75208;BME280;63795;55.684;37.864;2023-07-30T04:21:58;98972.28;;;15.66;81.10
75208;BME280;63795;55.684;37.864;2023-07-30T04:27:00;98968.09;;;15.79;80.43
75208;BME280;63795;55.684;37.864;2023-07-30T04:32:01;98973.91;;;15.88;80.22
75208;BME280;63795;55.684;37.864;2023-07-30T04:37:01;98973.63;;;15.95;79.61
75208;BME280;63795;55.684;37.864;2023-07-30T04:42:03;98982.63;;;16.06;78.77
75208;BME280;63795;55.684;37.864;2023-07-30T04:47:04;98989.72;;;16.24;79.43
75208;BME280;63795;55.684;37.864;2023-07-30T04:52:04;98991.44;;;16.43;77.46
75208;BME280;63795;55.684;37.864;2023-07-30T04:57:05;98992.66;;;16.54;77.71
75208;BME280;63795;55.684;37.864;2023-07-30T05:02:06;98995.44;;;16.67;78.21
75208;BME280;63795;55.684;37.864;2023-07-30T05:07:07;98999.94;;;16.77;76.58
75208;BME280;63795;55.684;37.864;2023-07-30T05:12:08;98992.84;;;16.90;76.72
75208;BME280;63795;55.684;37.864;2023-07-30T05:17:09;98997.50;;;17.06;76.67
75208;BME280;63795;55.684;37.864;2023-07-30T05:22:09;98992.75;;;17.12;74.72
75208;BME280;63795;55.684;37.864;2023-07-30T05:27:10;99002.97;;;17.22;74.18
75208;BME280;63795;55.684;37.864;2023-07-30T05:32:10;99009.84;;;17.34;73.14
75208;BME280;63795;55.684;37.864;2023-07-30T05:37:12;98996.34;;;17.43;72.87
75208;BME280;63795;55.684;37.864;2023-07-30T05:42:13;98997.78;;;17.48;73.07
75208;BME280;63795;55.684;37.864;2023-07-30T05:47:13;98994.13;;;17.47;71.88
75208;BME280;63795;55.684;37.864;2023-07-30T05:52:14;98980.25;;;17.46;72.91
75208;BME280;63795;55.684;37.864;2023-07-30T05:57:14;99002.44;;;17.54;72.63
75208;BME280;63795;55.684;37.864;2023-07-30T06:02:15;98990.06;;;17.57;73.29
75208;BME280;63795;55.684;37.864;2023-07-30T06:07:16;98996.91;;;17.69;73.31
75208;BME280;63795;55.684;37.864;2023-07-30T06:12:16;98983.38;;;17.88;72.52
75208;BME280;63795;55.684;37.864;2023-07-30T06:17:17;98968.72;;;17.86;71.32
75208;BME280;63795;55.684;37.864;2023-07-30T06:22:17;98974.44;;;17.95;71.86
75208;BME280;63795;55.684;37.864;2023-07-30T06:27:18;98978.88;;;18.14;70.06
75208;BME280;63795;55.684;37.864;2023-07-30T06:32:18;98970.88;;;18.36;70.12
75208;BME280;63795;55.684;37.864;2023-07-30T06:37:19;98965.25;;;18.68;70.00
75208;BME280;63795;55.684;37.864;2023-07-30T06:42:19;98972.19;;;18.95;68.47
75208;BME280;63795;55.684;37.864;2023-07-30T06:47:19;98962.09;;;18.99;67.80
75208;BME280;63795;55.684;37.864;2023-07-30T06:52:20;98969.97;;;19.22;67.54
75208;BME280;63795;55.684;37.864;2023-07-30T06:57:20;98978.09;;;19.57;66.33
75208;BME280;63795;55.684;37.864;2023-07-30T07:02:21;98967.41;;;19.95;66.19
75208;BME280;63795;55.684;37.864;2023-07-30T07:07:21;98966.31;;;20.31;63.35
75208;BME280;63795;55.684;37.864;2023-07-30T07:12:22;98976.06;;;20.63;64.99
75208;BME280;63795;55.684;37.864;2023-07-30T07:17:22;98967.22;;;20.66;62.72
75208;BME280;63795;55.684;37.864;2023-07-30T07:22:23;98982.59;;;20.49;64.23
75208;BME280;63795;55.684;37.864;2023-07-30T07:27:23;98974.13;;;20.16;63.92
75208;BME280;63795;55.684;37.864;2023-07-30T07:32:24;98976.94;;;20.25;62.92
75208;BME280;63795;55.684;37.864;2023-07-30T07:37:24;98971.88;;;20.78;61.63
75208;BME280;63795;55.684;37.864;2023-07-30T07:42:25;98978.34;;;20.73;61.69
75208;BME280;63795;55.684;37.864;2023-07-30T07:47:25;98981.50;;;20.61;60.78
75208;BME280;63795;55.684;37.864;2023-07-30T07:52:26;98971.56;;;20.91;60.57
75208;BME280;63795;55.684;37.864;2023-07-30T07:57:26;98972.06;;;20.89;58.96
75208;BME280;63795;55.684;37.864;2023-07-30T08:02:27;98960.16;;;20.82;59.99
75208;BME280;63795;55.684;37.864;2023-07-30T08:07:27;98978.75;;;21.10;57.74
75208;BME280;63795;55.684;37.864;2023-07-30T08:12:28;98976.59;;;21.60;57.16
75208;BME280;63795;55.684;37.864;2023-07-30T08:17:31;98982.88;;;22.19;57.20
75208;BME280;63795;55.684;37.864;2023-07-30T08:22:31;98975.50;;;22.63;53.51
75208;BME280;63795;55.684;37.864;2023-07-30T08:27:32;98981.34;;;22.95;53.47
75208;BME280;63795;55.684;37.864;2023-07-30T08:32:33;98989.91;;;23.46;53.85
75208;BME280;63795;55.684;37.864;2023-07-30T08:37:33;98984.81;;;23.35;50.27
75208;BME280;63795;55.684;37.864;2023-07-30T08:42:34;98990.84;;;23.69;48.78
75208;BME280;63795;55.684;37.864;2023-07-30T08:47:35;98974.75;;;23.31;48.62
75208;BME280;63795;55.684;37.864;2023-07-30T08:52:36;98997.06;;;23.56;48.51
75208;BME280;63795;55.684;37.864;2023-07-30T08:57:37;98995.44;;;23.97;47.69
75208;BME280;63795;55.684;37.864;2023-07-30T09:02:48;98999.50;;;24.16;48.70
75208;BME280;63795;55.684;37.864;2023-07-30T09:07:49;99006.22;;;24.61;47.22
75208;BME280;63795;55.684;37.864;2023-07-30T09:12:53;99003.13;;;24.81;44.93
75208;BME280;63795;55.684;37.864;2023-07-30T09:18:07;99005.47;;;24.66;45.12
75208;BME280;63795;55.684;37.864;2023-07-30T09:23:09;98998.66;;;24.75;45.86
75208;BME280;63795;55.684;37.864;2023-07-30T09:28:10;98995.00;;;24.10;45.54
75208;BME280;63795;55.684;37.864;2023-07-30T09:33:18;98992.22;;;23.79;47.36
75208;BME280;63795;55.684;37.864;2023-07-30T09:38:19;98994.31;;;23.78;48.70
75208;BME280;63795;55.684;37.864;2023-07-30T09:43:20;98999.53;;;24.27;46.29
75208;BME280;63795;55.684;37.864;2023-07-30T09:48:20;99001.59;;;24.10;47.32
75208;BME280;63795;55.684;37.864;2023-07-30T09:53:21;99000.06;;;24.26;45.64
75208;BME280;63795;55.684;37.864;2023-07-30T09:58:22;98993.31;;;24.57;45.63
75208;BME280;63795;55.684;37.864;2023-07-30T10:03:22;99002.88;;;24.85;44.91
75208;BME280;63795;55.684;37.864;2023-07-30T10:08:25;99006.22;;;24.50;45.15
75208;BME280;63795;55.684;37.864;2023-07-30T10:13:27;99006.31;;;24.89;47.39
75208;BME280;63795;55.684;37.864;2023-07-30T10:18:47;99010.72;;;24.57;44.36
75208;BME280;63795;55.684;37.864;2023-07-30T10:24:12;99006.16;;;24.33;44.88
75208;BME280;63795;55.684;37.864;2023-07-30T10:29:20;99005.78;;;25.01;43.86
75208;BME280;63795;55.684;37.864;2023-07-30T10:34:21;98999.75;;;25.49;44.34
75208;BME280;63795;55.684;37.864;2023-07-30T10:39:26;99000.28;;;25.53;38.92
75208;BME280;63795;55.684;37.864;2023-07-30T10:44:31;98994.16;;;25.68;39.25
75208;BME280;63795;55.684;37.864;2023-07-30T10:49:39;98992.63;;;26.30;40.21
75208;BME280;63795;55.684;37.864;2023-07-30T10:54:46;98995.88;;;26.72;39.81
75208;BME280;63795;55.684;37.864;2023-07-30T10:59:47;98994.41;;;26.90;37.46
75208;BME280;63795;55.684;37.864;2023-07-30T11:04:48;99003.88;;;27.02;37.87
75208;BME280;63795;55.684;37.864;2023-07-30T11:09:58;98998.88;;;26.97;35.93
75208;BME280;63795;55.684;37.864;2023-07-30T11:15:03;99002.59;;;26.51;36.83
75208;BME280;63795;55.684;37.864;2023-07-30T11:20:04;99009.81;;;26.85;37.45
75208;BME280;63795;55.684;37.864;2023-07-30T11:25:16;99010.47;;;27.02;36.06
75208;BME280;63795;55.684;37.864;2023-07-30T11:30:16;98999.38;;;27.01;34.78
75208;BME280;63795;55.684;37.864;2023-07-30T11:35:17;99003.69;;;26.88;34.77
75208;BME280;63795;55.684;37.864;2023-07-30T11:40:18;99007.66;;;26.91;34.60
75208;BME280;63795;55.684;37.864;2023-07-30T11:45:20;99010.88;;;26.82;34.50
75208;BME280;63795;55.684;37.864;2023-07-30T11:50:21;99004.69;;;26.97;35.50
75208;BME280;63795;55.684;37.864;2023-07-30T11:55:22;99012.13;;;27.27;35.83
75208;BME280;63795;55.684;37.864;2023-07-30T12:00:24;99009.59;;;26.77;34.68
75208;BME280;63795;55.684;37.864;2023-07-30T12:05:37;99003.88;;;25.92;36.29
75208;BME280;63795;55.684;37.864;2023-07-30T12:10:46;99007.81;;;25.95;36.88
75208;BME280;63795;55.684;37.864;2023-07-30T12:15:52;98996.78;;;26.51;36.52
75208;BME280;63795;55.684;37.864;2023-07-30T12:20:54;99001.66;;;26.78;36.27
75208;BME280;63795;55.684;37.864;2023-07-30T12:25:58;98992.75;;;27.00;37.40
75208;BME280;63795;55.684;37.864;2023-07-30T12:30:58;99018.00;;;26.86;36.46
75208;BME280;63795;55.684;37.864;2023-07-30T12:35:59;99003.47;;;26.35;37.89
75208;BME280;63795;55.684;37.864;2023-07-30T12:40:59;99018.28;;;26.31;37.55
75208;BME280;63795;55.684;37.864;2023-07-30T12:46:00;99008.94;;;26.49;35.70
75208;BME280;63795;55.684;37.864;2023-07-30T12:51:01;99013.38;;;27.02;36.20
75208;BME280;63795;55.684;37.864;2023-07-30T12:56:02;99011.66;;;27.53;35.48
75208;BME280;63795;55.684;37.864;2023-07-30T13:01:02;99005.19;;;27.90;34.71
75208;BME280;63795;55.684;37.864;2023-07-30T13:06:03;99010.31;;;28.08;34.32
75208;BME280;63795;55.684;37.864;2023-07-30T13:11:04;99007.38;;;28.50;33.68
75208;BME280;63795;55.684;37.864;2023-07-30T13:16:04;98993.44;;;28.43;32.43
75208;BME280;63795;55.684;37.864;2023-07-30T13:21:04;98984.69;;;28.01;32.95
75208;BME280;63795;55.684;37.864;2023-07-30T13:26:05;98995.06;;;27.42;33.83
75208;BME280;63795;55.684;37.864;2023-07-30T13:31:05;98984.06;;;26.54;35.87
75208;BME280;63795;55.684;37.864;2023-07-30T13:36:06;98994.34;;;26.08;36.88
75208;BME280;63795;55.684;37.864;2023-07-30T13:41:06;98995.22;;;25.54;37.52
75208;BME280;63795;55.684;37.864;2023-07-30T13:46:07;98996.56;;;25.25;37.72
75208;BME280;63795;55.684;37.864;2023-07-30T13:51:07;98990.22;;;24.88;38.19
75208;BME280;63795;55.684;37.864;2023-07-30T13:56:08;98984.97;;;24.81;38.27
75208;BME280;63795;55.684;37.864;2023-07-30T14:01:08;98981.78;;;24.79;38.86
75208;BME280;63795;55.684;37.864;2023-07-30T14:06:09;98981.78;;;24.79;38.87
75208;BME280;63795;55.684;37.864;2023-07-30T14:11:10;98984.16;;;24.80;38.72
75208;BME280;63795;55.684;37.864;2023-07-30T14:16:11;98971.50;;;24.78;38.58
75208;BME280;63795;55.684;37.864;2023-07-30T14:21:11;98962.78;;;24.83;38.91
75208;BME280;63795;55.684;37.864;2023-07-30T14:26:13;98966.97;;;24.66;39.12
75208;BME280;63795;55.684;37.864;2023-07-30T14:31:14;98963.88;;;24.75;39.81
75208;BME280;63795;55.684;37.864;2023-07-30T14:36:15;98957.03;;;24.89;40.00
75208;BME280;63795;55.684;37.864;2023-07-30T14:41:15;98960.16;;;25.02;40.12
75208;BME280;63795;55.684;37.864;2023-07-30T14:46:15;98955.69;;;25.06;39.98
75208;BME280;63795;55.684;37.864;2023-07-30T14:51:16;98965.19;;;25.18;40.51
75208;BME280;63795;55.684;37.864;2023-07-30T14:56:17;98961.22;;;25.10;39.06
75208;BME280;63795;55.684;37.864;2023-07-30T15:01:17;98961.75;;;24.81;38.08
75208;BME280;63795;55.684;37.864;2023-07-30T15:06:18;98975.94;;;24.57;39.67
75208;BME280;63795;55.684;37.864;2023-07-30T15:11:20;98963.47;;;24.28;40.27
75208;BME280;63795;55.684;37.864;2023-07-30T15:16:21;98978.44;;;24.10;40.92
75208;BME280;63795;55.684;37.864;2023-07-30T15:21:21;98973.34;;;24.00;41.54
75208;BME280;63795;55.684;37.864;2023-07-30T15:26:21;98986.97;;;23.83;41.99
75208;BME280;63795;55.684;37.864;2023-07-30T15:31:22;98978.47;;;23.74;42.30
75208;BME280;63795;55.684;37.864;2023-07-30T15:36:23;98975.13;;;23.86;42.25
75208;BME280;63795;55.684;37.864;2023-07-30T15:41:23;98992.91;;;24.05;42.31
75208;BME280;63795;55.684;37.864;2023-07-30T15:46:24;99001.47;;;23.88;42.48
75208;BME280;63795;55.684;37.864;2023-07-30T15:51:24;98994.78;;;23.71;42.85
75208;BME280;63795;55.684;37.864;2023-07-30T15:56:27;98996.50;;;23.52;42.98
75208;BME280;63795;55.684;37.864;2023-07-30T16:01:27;99006.44;;;23.40;42.90
75208;BME280;63795;55.684;37.864;2023-07-30T16:06:28;99004.09;;;23.44;43.40
75208;BME280;63795;55.684;37.864;2023-07-30T16:11:28;98999.59;;;23.43;43.35
75208;BME280;63795;55.684;37.864;2023-07-30T16:16:29;99011.72;;;23.47;43.25
75208;BME280;63795;55.684;37.864;2023-07-30T16:21:29;99019.28;;;23.39;43.13
75208;BME280;63795;55.684;37.864;2023-07-30T16:26:30;99032.19;;;23.38;43.69
75208;BME280;63795;55.684;37.864;2023-07-30T16:31:30;99026.63;;;23.34;44.06
75208;BME280;63795;55.684;37.864;2023-07-30T16:36:31;99021.53;;;23.24;44.00
75208;BME280;63795;55.684;37.864;2023-07-30T16:41:31;99023.25;;;23.10;44.81
75208;BME280;63795;55.684;37.864;2023-07-30T16:46:32;99016.03;;;22.95;45.23
75208;BME280;63795;55.684;37.864;2023-07-30T16:51:33;99019.31;;;22.82;45.20
75208;BME280;63795;55.684;37.864;2023-07-30T16:56:33;99026.56;;;22.72;45.35
75208;BME280;63795;55.684;37.864;2023-07-30T17:01:33;99028.03;;;22.62;45.87
75208;BME280;63795;55.684;37.864;2023-07-30T17:06:37;99033.47;;;22.54;46.05
75208;BME280;63795;55.684;37.864;2023-07-30T17:11:38;99031.78;;;22.48;46.20
75208;BME280;63795;55.684;37.864;2023-07-30T17:16:40;99040.13;;;22.40;46.48
75208;BME280;63795;55.684;37.864;2023-07-30T17:21:41;99044.25;;;22.34;46.23
75208;BME280;63795;55.684;37.864;2023-07-30T17:26:42;99050.81;;;22.34;46.54
75208;BME280;63795;55.684;37.864;2023-07-30T17:31:42;99044.19;;;22.28;46.83
75208;BME280;63795;55.684;37.864;2023-07-30T17:36:43;99047.94;;;22.14;46.96
75208;BME280;63795;55.684;37.864;2023-07-30T17:41:43;99054.63;;;22.06;47.67
75208;BME280;63795;55.684;37.864;2023-07-30T17:46:43;99057.25;;;22.04;48.11
75208;BME280;63795;55.684;37.864;2023-07-30T17:51:44;99060.06;;;21.98;47.60
75208;BME280;63795;55.684;37.864;2023-07-30T17:56:45;99060.75;;;21.93;48.59
75208;BME280;63795;55.684;37.864;2023-07-30T18:01:45;99055.94;;;21.84;48.29
75208;BME280;63795;55.684;37.864;2023-07-30T18:06:46;99065.06;;;21.83;49.01
75208;BME280;63795;55.684;37.864;2023-07-30T18:11:46;99061.56;;;21.79;48.56
75208;BME280;63795;55.684;37.864;2023-07-30T18:16:47;99057.44;;;21.65;48.67
75208;BME280;63795;55.684;37.864;2023-07-30T18:21:47;99054.19;;;21.58;48.83
75208;BME280;63795;55.684;37.864;2023-07-30T18:26:48;99056.41;;;21.48;49.56
75208;BME280;63795;55.684;37.864;2023-07-30T18:31:51;99063.88;;;21.40;49.47
75208;BME280;63795;55.684;37.864;2023-07-30T18:36:51;99062.50;;;21.36;50.22
75208;BME280;63795;55.684;37.864;2023-07-30T18:41:52;99048.59;;;21.20;49.95
75208;BME280;63795;55.684;37.864;2023-07-30T18:46:56;99055.63;;;21.18;49.67
75208;BME280;63795;55.684;37.864;2023-07-30T18:52:00;99059.84;;;21.17;49.59
75208;BME280;63795;55.684;37.864;2023-07-30T18:57:01;99049.50;;;21.11;50.15
75208;BME280;63795;55.684;37.864;2023-07-30T19:02:01;99058.00;;;20.91;50.95
75208;BME280;63795;55.684;37.864;2023-07-30T19:07:02;99059.19;;;20.84;50.91
75208;BME280;63795;55.684;37.864;2023-07-30T19:12:03;99044.31;;;20.71;51.11
75208;BME280;63795;55.684;37.864;2023-07-30T19:17:04;99050.66;;;20.61;51.51
75208;BME280;63795;55.684;37.864;2023-07-30T19:22:04;99055.91;;;20.48;51.73
75208;BME280;63795;55.684;37.864;2023-07-30T19:27:08;99054.19;;;20.41;52.17
75208;BME280;63795;55.684;37.864;2023-07-30T19:32:08;99051.28;;;20.26;51.70
75208;BME280;63795;55.684;37.864;2023-07-30T19:37:09;99058.63;;;20.27;52.54
75208;BME280;63795;55.684;37.864;2023-07-30T19:42:09;99052.78;;;20.22;52.37
75208;BME280;63795;55.684;37.864;2023-07-30T19:47:16;99052.91;;;20.18;51.64
75208;BME280;63795;55.684;37.864;2023-07-30T19:52:19;99048.34;;;20.12;52.12
75208;BME280;63795;55.684;37.864;2023-07-30T19:57:20;99052.88;;;20.04;52.33
75208;BME280;63795;55.684;37.864;2023-07-30T20:02:20;99053.25;;;19.97;52.63
75208;BME280;63795;55.684;37.864;2023-07-30T20:07:21;99065.78;;;19.85;52.63
75208;BME280;63795;55.684;37.864;2023-07-30T20:12:21;99073.50;;;19.79;53.62
75208;BME280;63795;55.684;37.864;2023-07-30T20:17:23;99062.84;;;19.70;53.61
75208;BME280;63795;55.684;37.864;2023-07-30T20:22:23;99064.63;;;19.68;53.11
75208;BME280;63795;55.684;37.864;2023-07-30T20:27:24;99059.41;;;19.57;53.35
75208;BME280;63795;55.684;37.864;2023-07-30T20:32:24;99064.34;;;19.57;53.64
75208;BME280;63795;55.684;37.864;2023-07-30T20:37:27;99054.78;;;19.50;53.43
75208;BME280;63795;55.684;37.864;2023-07-30T20:42:27;99062.94;;;19.52;53.40
75208;BME280;63795;55.684;37.864;2023-07-30T20:47:28;99052.75;;;19.42;53.69
75208;BME280;63795;55.684;37.864;2023-07-30T20:52:29;99049.88;;;19.42;54.28
75208;BME280;63795;55.684;37.864;2023-07-30T20:57:29;99049.25;;;19.38;54.48
75208;BME280;63795;55.684;37.864;2023-07-30T21:02:30;99048.66;;;19.34;53.90
75208;BME280;63795;55.684;37.864;2023-07-30T21:07:30;99047.88;;;19.24;54.92
75208;BME280;63795;55.684;37.864;2023-07-30T21:12:31;99047.91;;;19.15;54.24
75208;BME280;63795;55.684;37.864;2023-07-30T21:17:34;99051.13;;;19.08;55.89
75208;BME280;63795;55.684;37.864;2023-07-30T21:22:35;99054.34;;;19.01;55.89
75208;BME280;63795;55.684;37.864;2023-07-30T21:27:35;99060.75;;;18.96;55.06
75208;BME280;63795;55.684;37.864;2023-07-30T21:32:36;99055.84;;;18.88;56.51
75208;BME280;63795;55.684;37.864;2023-07-30T21:37:36;99054.09;;;18.81;55.78
75208;BME280;63795;55.684;37.864;2023-07-30T21:42:37;99059.06;;;18.72;56.69
75208;BME280;63795;55.684;37.864;2023-07-30T21:47:37;99058.88;;;18.66;56.05
75208;BME280;63795;55.684;37.864;2023-07-30T21:52:38;99071.66;;;18.65;57.51
75208;BME280;63795;55.684;37.864;2023-07-30T21:57:41;99064.81;;;18.62;56.47
75208;BME280;63795;55.684;37.864;2023-07-30T22:02:41;99078.53;;;18.58;56.27
75208;BME280;63795;55.684;37.864;2023-07-30T22:07:42;99072.00;;;18.49;56.34
75208;BME280;63795;55.684;37.864;2023-07-30T22:12:43;99072.94;;;18.46;56.52
75208;BME280;63795;55.684;37.864;2023-07-30T22:17:43;99066.22;;;18.40;56.66
75208;BME280;63795;55.684;37.864;2023-07-30T22:22:44;99051.91;;;18.31;57.79
75208;BME280;63795;55.684;37.864;2023-07-30T22:27:45;99058.56;;;18.28;57.75
75208;BME280;63795;55.684;37.864;2023-07-30T22:32:46;99064.97;;;18.23;57.99
75208;BME280;63795;55.684;37.864;2023-07-30T22:37:46;99059.41;;;18.19;59.17
75208;BME280;63795;55.684;37.864;2023-07-30T22:42:46;99071.97;;;18.22;58.08
75208;BME280;63795;55.684;37.864;2023-07-30T22:47:48;99067.69;;;18.17;57.50
75208;BME280;63795;55.684;37.864;2023-07-30T22:52:48;99070.53;;;18.08;58.01
75208;BME280;63795;55.684;37.864;2023-07-30T22:57:49;99066.53;;;17.97;58.67
75208;BME280;63795;55.684;37.864;2023-07-30T23:02:49;99070.69;;;17.96;58.32
75208;BME280;63795;55.684;37.864;2023-07-30T23:07:50;99072.59;;;17.99;58.38
75208;BME280;63795;55.684;37.864;2023-07-30T23:12:50;99074.81;;;18.04;58.30
75208;BME280;63795;55.684;37.864;2023-07-30T23:17:50;99084.41;;;18.10;58.20
75208;BME280;63795;55.684;37.864;2023-07-30T23:22:51;99077.25;;;18.05;58.55
75208;BME280;63795;55.684;37.864;2023-07-30T23:27:51;99074.66;;;17.98;58.34
75208;BME280;63795;55.684;37.864;2023-07-30T23:32:52;99077.22;;;17.96;58.07
75208;BME280;63795;55.684;37.864;2023-07-30T23:37:52;99080.09;;;17.87;59.22
75208;BME280;63795;55.684;37.864;2023-07-30T23:42:53;99070.34;;;17.84;58.65
75208;BME280;63795;55.684;37.864;2023-07-30T23:47:53;99074.31;;;17.78;59.92
75208;BME280;63795;55.684;37.864;2023-07-30T23:52:54;99076.84;;;17.76;59.52
75208;BME280;63795;55.684;37.864;2023-07-30T23:57:54;99071.94;;;17.67;59.72
